Time;durP1;ratioP1;P1;durP2;ratioP2;P2;SDS_P1;SDS_P2;PMS_P1;PMS_P2;Temp;Humidity;BMP_temperature;BMP_pressure;BME280_temperature;BME280_humidity;BME280_pressure;Samples;Min_cycle;Max_cycle;Signal;HPM_P1;HPM_P2
2023/11/17 00:01:40;;;;;;;14.88;2.45;;;;;;;;;;5031835;28;20109;-36
2023/11/17 00:04:08;;;;;;;10.98;2.00;;;;;;;;;;5032113;28;20033;-36
2023/11/17 00:06:35;;;;;;;9.90;1.88;;;;;;;;;;5032064;28;20029;-36
2023/11/17 00:09:05;;;;;;;18.90;2.50;;;;;;;;;;5031443;28;20044;-35
2023/11/17 00:11:34;;;;;;;19.52;2.65;;;;;;;;;;5034222;28;20044;-37
2023/11/17 00:14:01;;;;;;;15.30;2.58;;;;;;;;;;5037310;28;20026;-35
2023/11/17 00:16:28;;;;;;;19.05;2.95;;;;;;;;;;5031992;28;20037;-38
2023/11/17 00:18:55;;;;;;;14.63;2.58;;;;;;;;;;5017714;28;20471;-38
2023/11/17 00:21:22;;;;;;;18.95;3.10;;;;;;;;;;5015992;28;20095;-34
2023/11/17 00:23:49;;;;;;;29.85;3.40;;;;;;;;;;5031124;28;20017;-34
2023/11/17 00:26:17;;;;;;;27.08;4.18;;;;;;;;;;5031283;28;20022;-35
2023/11/17 00:28:44;;;;;;;27.95;3.20;;;;;;;;;;5030962;28;20041;-35
2023/11/17 00:31:11;;;;;;;28.35;3.72;;;;;;;;;;5028218;28;20035;-39
2023/11/17 00:33:39;;;;;;;28.85;4.03;;;;;;;;;;5022736;28;20025;-36
2023/11/17 00:36:06;;;;;;;19.92;3.15;;;;;;;;;;5030342;28;20112;-35
2023/11/17 00:38:33;;;;;;;20.67;3.47;;;;;;;;;;5030632;28;20746;-36
2023/11/17 00:41:02;;;;;;;27.00;3.55;;;;;;;;;;5030968;28;20051;-34
2023/11/17 00:43:30;;;;;;;17.63;3.15;;;;;;;;;;5031287;28;20044;-34
2023/11/17 00:45:58;;;;;;;21.13;3.22;;;;;;;;;;5030812;28;20039;-35
2023/11/17 00:48:25;;;;;;;26.40;4.25;;;;;;;;;;5030687;28;20095;-34
2023/11/17 00:50:53;;;;;;;25.10;4.45;;;;;;;;;;5030606;28;20048;-36
2023/11/17 00:53:25;;;;;;;25.67;3.92;;;;;;;;;;5030992;28;20040;-34
2023/11/17 00:55:57;;;;;;;23.73;5.28;;;;;;;;;;5026000;28;20069;-35
2023/11/17 00:58:24;;;;;;;40.58;7.13;;;;;;;;;;5028393;28;20419;-37
2023/11/17 01:00:51;;;;;;;39.53;7.53;;;;;;;;;;5019919;28;20121;-37
2023/11/17 01:03:19;;;;;;;36.50;7.70;;;;;;;;;;5024759;28;20735;-34
2023/11/17 01:05:46;;;;;;;40.78;7.18;;;;;;;;;;5027839;28;20093;-38
2023/11/17 01:08:13;;;;;;;36.08;7.93;;;;;;;;;;5030488;28;20068;-37
2023/11/17 01:10:41;;;;;;;35.42;7.43;;;;;;;;;;5012829;28;20406;-35
2023/11/17 01:13:08;;;;;;;44.75;8.98;;;;;;;;;;5030995;28;20022;-37
2023/11/17 01:15:36;;;;;;;46.40;9.60;;;;;;;;;;5030595;28;20034;-35
2023/11/17 01:18:07;;;;;;;55.08;13.40;;;;;;;;;;5030831;28;20034;-35
2023/11/17 01:20:34;;;;;;;96.68;23.77;;;;;;;;;;5031721;28;20083;-37
2023/11/17 01:23:02;;;;;;;88.75;26.73;;;;;;;;;;5033673;28;20108;-37
2023/11/17 01:25:30;;;;;;;93.28;26.83;;;;;;;;;;5022737;28;20080;-35
2023/11/17 01:27:57;;;;;;;93.63;28.15;;;;;;;;;;5016756;28;20037;-34
2023/11/17 01:30:24;;;;;;;100.10;31.05;;;;;;;;;;5034511;28;20033;-34
2023/11/17 01:32:51;;;;;;;94.00;30.90;;;;;;;;;;5034775;28;20052;-34
2023/11/17 01:35:19;;;;;;;114.43;31.23;;;;;;;;;;5034528;28;20029;-34
2023/11/17 01:37:46;;;;;;;97.93;31.08;;;;;;;;;;5032387;28;20112;-34
2023/11/17 01:40:15;;;;;;;102.25;29.23;;;;;;;;;;5031410;28;20060;-37
2023/11/17 01:42:42;;;;;;;102.10;29.70;;;;;;;;;;5033736;28;20037;-37
2023/11/17 01:45:09;;;;;;;92.35;30.20;;;;;;;;;;5016497;28;20035;-35
2023/11/17 01:47:42;;;;;;;108.68;32.20;;;;;;;;;;5034109;28;20033;-34
2023/11/17 01:50:11;;;;;;;96.07;32.47;;;;;;;;;;5033427;28;20077;-34
2023/11/17 01:52:40;;;;;;;86.50;30.40;;;;;;;;;;5021217;28;20094;-34
2023/11/17 01:55:08;;;;;;;80.03;29.20;;;;;;;;;;5021148;28;20059;-34
2023/11/17 01:57:38;;;;;;;88.85;29.75;;;;;;;;;;5033971;28;20458;-34
2023/11/17 02:00:13;;;;;;;79.28;28.25;;;;;;;;;;5034111;28;20124;-34
2023/11/17 02:02:48;;;;;;;84.15;28.00;;;;;;;;;;5035127;28;20108;-36
2023/11/17 02:05:17;;;;;;;73.95;27.42;;;;;;;;;;5034348;28;20426;-34
2023/11/17 02:07:45;;;;;;;82.00;27.65;;;;;;;;;;5042824;28;20044;-34
2023/11/17 02:10:20;;;;;;;72.82;26.65;;;;;;;;;;5052800;28;20064;-36
2023/11/17 02:12:59;;;;;;;71.20;25.20;;;;;;;;;;5052813;28;20119;-35
2023/11/17 02:15:33;;;;;;;71.72;25.17;;;;;;;;;;5052499;28;20041;-35
2023/11/17 02:18:04;;;;;;;67.88;24.00;;;;;;;;;;5040607;28;20056;-37
2023/11/17 02:20:34;;;;;;;59.72;22.10;;;;;;;;;;5034217;28;20057;-36
2023/11/17 02:23:10;;;;;;;60.75;23.05;;;;;;;;;;5034012;28;20549;-36
2023/11/17 02:25:59;;;;;;;54.70;20.80;;;;;;;;;;5034030;28;20045;-36
2023/11/17 02:28:36;;;;;;;52.65;20.85;;;;;;;;;;5033707;28;20129;-37
2023/11/17 02:31:17;;;;;;;51.88;19.10;;;;;;;;;;5033916;28;20030;-38
2023/11/17 02:33:48;;;;;;;58.25;19.33;;;;;;;;;;5033922;28;20444;-37
2023/11/17 02:36:19;;;;;;;50.58;17.30;;;;;;;;;;5033876;28;20036;-36
2023/11/17 02:38:50;;;;;;;42.78;17.48;;;;;;;;;;5033899;28;20041;-37
2023/11/17 02:41:29;;;;;;;44.20;17.15;;;;;;;;;;5034039;28;20386;-37
2023/11/17 02:43:57;;;;;;;39.75;16.25;;;;;;;;;;5033699;28;20033;-37
2023/11/17 02:46:27;;;;;;;38.63;14.98;;;;;;;;;;5033656;28;20372;-37
2023/11/17 02:49:03;;;;;;;36.10;14.65;;;;;;;;;;5033366;28;20064;-36
2023/11/17 02:51:37;;;;;;;37.78;14.63;;;;;;;;;;5033519;28;20041;-37
2023/11/17 02:54:13;;;;;;;33.78;13.65;;;;;;;;;;5033539;28;20037;-36
2023/11/17 02:56:40;;;;;;;35.10;12.43;;;;;;;;;;5033411;28;20025;-36
2023/11/17 02:59:11;;;;;;;27.13;11.43;;;;;;;;;;5033416;28;20044;-36
2023/11/17 03:01:39;;;;;;;33.35;11.15;;;;;;;;;;5033537;28;20068;-36
2023/11/17 03:04:13;;;;;;;30.73;11.00;;;;;;;;;;5033507;28;20029;-36
2023/11/17 03:06:47;;;;;;;28.80;11.32;;;;;;;;;;5033314;28;20057;-36
2023/11/17 03:09:15;;;;;;;26.55;9.85;;;;;;;;;;5033172;28;20109;-36
2023/11/17 03:11:44;;;;;;;25.27;9.52;;;;;;;;;;5024758;28;20041;-36
2023/11/17 03:14:11;;;;;;;24.55;9.02;;;;;;;;;;5033145;28;20036;-34
2023/11/17 03:16:38;;;;;;;22.60;8.25;;;;;;;;;;5033222;28;20503;-34
2023/11/17 03:19:10;;;;;;;24.50;8.55;;;;;;;;;;5033117;28;20033;-34
2023/11/17 03:21:40;;;;;;;21.52;8.30;;;;;;;;;;5032874;28;20072;-34
2023/11/17 03:24:17;;;;;;;19.85;7.65;;;;;;;;;;5033027;28;20561;-34
2023/11/17 03:26:50;;;;;;;18.83;7.60;;;;;;;;;;5032909;28;20030;-34
2023/11/17 03:29:17;;;;;;;20.15;7.32;;;;;;;;;;5032693;28;20041;-34
2023/11/17 03:31:53;;;;;;;18.30;6.93;;;;;;;;;;5032984;28;20038;-34
2023/11/17 03:34:28;;;;;;;14.77;6.00;;;;;;;;;;5032793;28;20037;-34
2023/11/17 03:36:56;;;;;;;17.67;6.15;;;;;;;;;;5032703;28;20033;-34
2023/11/17 03:39:43;;;;;;;15.57;6.97;;;;;;;;;;5032681;28;20063;-34
2023/11/17 03:42:18;;;;;;;18.83;5.88;;;;;;;;;;5014838;28;20369;-34
2023/11/17 03:44:45;;;;;;;14.05;6.00;;;;;;;;;;5031978;28;20029;-37
2023/11/17 03:47:13;;;;;;;17.25;5.57;;;;;;;;;;5014876;28;20029;-36
2023/11/17 03:49:43;;;;;;;14.45;6.15;;;;;;;;;;5032291;28;20082;-36
2023/11/17 03:52:16;;;;;;;16.50;5.88;;;;;;;;;;5032375;28;20040;-36
2023/11/17 03:54:43;;;;;;;13.60;5.18;;;;;;;;;;5014685;28;20044;-36
2023/11/17 03:57:12;;;;;;;14.48;5.72;;;;;;;;;;5032493;28;20437;-36
2023/11/17 03:59:39;;;;;;;14.30;5.60;;;;;;;;;;5032177;28;20461;-37
2023/11/17 04:02:07;;;;;;;14.80;5.60;;;;;;;;;;5032411;28;20018;-36
2023/11/17 04:04:34;;;;;;;21.83;5.82;;;;;;;;;;5032216;28;20033;-37
2023/11/17 04:07:01;;;;;;;12.98;5.63;;;;;;;;;;5032318;28;20097;-37
2023/11/17 04:09:28;;;;;;;11.43;4.80;;;;;;;;;;5032112;28;20052;-37
2023/11/17 04:12:01;;;;;;;23.00;5.22;;;;;;;;;;5032237;28;20029;-36
2023/11/17 04:14:37;;;;;;;10.95;4.35;;;;;;;;;;5031989;28;20514;-37
2023/11/17 04:17:04;;;;;;;10.90;4.50;;;;;;;;;;5032214;28;20037;-36
2023/11/17 04:19:31;;;;;;;9.57;4.35;;;;;;;;;;5031815;28;20395;-37
2023/11/17 04:21:58;;;;;;;8.93;3.92;;;;;;;;;;5032066;28;20021;-37
2023/11/17 04:24:25;;;;;;;12.93;4.68;;;;;;;;;;5032046;28;20056;-36
2023/11/17 04:26:52;;;;;;;9.98;3.97;;;;;;;;;;5031934;28;20034;-36
2023/11/17 04:29:19;;;;;;;12.35;4.22;;;;;;;;;;5031843;28;20570;-37
2023/11/17 04:31:46;;;;;;;8.18;3.55;;;;;;;;;;5031898;28;20096;-37
2023/11/17 04:34:14;;;;;;;9.20;3.80;;;;;;;;;;5031882;28;20035;-36
2023/11/17 04:36:42;;;;;;;9.07;3.58;;;;;;;;;;5031666;28;20029;-37
2023/11/17 04:39:17;;;;;;;7.25;3.67;;;;;;;;;;5031931;28;20042;-36
2023/11/17 04:41:45;;;;;;;8.40;3.60;;;;;;;;;;5031671;28;20080;-36
2023/11/17 04:44:12;;;;;;;12.63;3.50;;;;;;;;;;5031491;28;20479;-36
2023/11/17 04:46:39;;;;;;;8.90;3.55;;;;;;;;;;5031662;28;20487;-36
2023/11/17 04:49:06;;;;;;;9.05;3.45;;;;;;;;;;5031306;28;20107;-36
2023/11/17 04:51:33;;;;;;;6.63;3.10;;;;;;;;;;5031689;28;20026;-36
2023/11/17 04:54:00;;;;;;;7.25;3.03;;;;;;;;;;5031491;28;20033;-36
2023/11/17 04:56:28;;;;;;;7.03;3.20;;;;;;;;;;5030516;28;20399;-34
2023/11/17 04:58:56;;;;;;;6.53;3.47;;;;;;;;;;5013743;28;20411;-34
2023/11/17 05:01:23;;;;;;;6.68;2.97;;;;;;;;;;5031336;28;20044;-34
2023/11/17 05:03:50;;;;;;;8.02;3.00;;;;;;;;;;5031569;28;20403;-34
2023/11/17 05:06:24;;;;;;;9.60;2.90;;;;;;;;;;5031464;28;20075;-34
2023/11/17 05:08:51;;;;;;;9.68;2.60;;;;;;;;;;5031175;28;20046;-34
2023/11/17 05:11:21;;;;;;;8.25;3.28;;;;;;;;;;5031310;28;20030;-34
2023/11/17 05:13:48;;;;;;;7.68;3.08;;;;;;;;;;5031334;28;20376;-34
2023/11/17 05:16:14;;;;;;;7.97;3.42;;;;;;;;;;5031335;28;20455;-34
2023/11/17 05:18:47;;;;;;;6.82;2.88;;;;;;;;;;5031362;28;20034;-34
2023/11/17 05:21:15;;;;;;;8.65;3.03;;;;;;;;;;5031225;28;20084;-34
2023/11/17 05:23:42;;;;;;;7.95;2.50;;;;;;;;;;5031259;28;20030;-34
2023/11/17 05:26:10;;;;;;;6.13;2.67;;;;;;;;;;5031343;28;20488;-34
2023/11/17 05:28:39;;;;;;;6.65;2.72;;;;;;;;;;5030963;28;20518;-34
2023/11/17 05:31:07;;;;;;;7.15;2.70;;;;;;;;;;5031144;28;20030;-35
2023/11/17 05:33:34;;;;;;;8.20;3.13;;;;;;;;;;5031120;28;20048;-34
2023/11/17 05:36:02;;;;;;;5.70;2.60;;;;;;;;;;5031242;28;20487;-34
2023/11/17 05:38:29;;;;;;;4.97;2.33;;;;;;;;;;5030931;28;20041;-34
2023/11/17 05:40:57;;;;;;;6.28;2.45;;;;;;;;;;5031302;28;20033;-34
2023/11/17 05:43:24;;;;;;;7.43;2.88;;;;;;;;;;5031010;28;20561;-34
2023/11/17 05:45:51;;;;;;;5.63;2.67;;;;;;;;;;5031111;28;20022;-34
2023/11/17 05:48:18;;;;;;;7.35;2.97;;;;;;;;;;5030925;28;20124;-34
2023/11/17 05:50:45;;;;;;;5.07;2.38;;;;;;;;;;5030925;28;20077;-34
2023/11/17 05:53:12;;;;;;;3.70;2.30;;;;;;;;;;5031160;28;20029;-34
2023/11/17 05:55:39;;;;;;;6.03;2.22;;;;;;;;;;5030986;28;20022;-34
2023/11/17 05:58:07;;;;;;;7.43;2.42;;;;;;;;;;5030726;28;20048;-34
2023/11/17 06:00:34;;;;;;;5.18;2.50;;;;;;;;;;5030943;28;20407;-34
2023/11/17 06:03:01;;;;;;;3.88;1.92;;;;;;;;;;5029807;28;20036;-36
2023/11/17 06:05:29;;;;;;;5.75;2.10;;;;;;;;;;5030932;28;20032;-36
2023/11/17 06:07:56;;;;;;;4.25;2.28;;;;;;;;;;5033556;28;20029;-36
2023/11/17 06:10:23;;;;;;;5.47;1.90;;;;;;;;;;5034330;28;20038;-36
2023/11/17 06:12:50;;;;;;;5.05;2.05;;;;;;;;;;5034446;28;20022;-36
2023/11/17 06:15:23;;;;;;;4.75;2.03;;;;;;;;;;5034412;28;20037;-36
2023/11/17 06:17:50;;;;;;;5.60;1.90;;;;;;;;;;5034414;28;20037;-36
2023/11/17 06:20:18;;;;;;;4.82;1.88;;;;;;;;;;5034354;28;20499;-36
2023/11/17 06:22:46;;;;;;;7.15;2.38;;;;;;;;;;5034190;28;20034;-36
2023/11/17 06:25:13;;;;;;;3.75;1.80;;;;;;;;;;5034249;28;20025;-36
2023/11/17 06:27:40;;;;;;;5.28;2.08;;;;;;;;;;5034124;28;20502;-37
2023/11/17 06:30:07;;;;;;;4.07;1.98;;;;;;;;;;5033951;28;20131;-37
2023/11/17 06:32:34;;;;;;;4.53;1.70;;;;;;;;;;5034063;28;20029;-36
2023/11/17 06:35:01;;;;;;;4.60;1.65;;;;;;;;;;5033562;28;20527;-36
2023/11/17 06:37:28;;;;;;;3.28;1.60;;;;;;;;;;5034001;28;20135;-37
2023/11/17 06:39:55;;;;;;;4.20;1.67;;;;;;;;;;5033911;28;20040;-36
2023/11/17 06:42:22;;;;;;;3.75;1.70;;;;;;;;;;5033899;28;20029;-36
2023/11/17 06:44:51;;;;;;;4.00;1.52;;;;;;;;;;5033831;28;20491;-36
2023/11/17 06:47:18;;;;;;;4.40;1.58;;;;;;;;;;5033946;28;20479;-36
2023/11/17 06:49:45;;;;;;;5.28;1.60;;;;;;;;;;5033300;28;20049;-37
2023/11/17 06:52:13;;;;;;;6.00;1.70;;;;;;;;;;5033734;28;20029;-36
2023/11/17 06:54:39;;;;;;;3.28;1.58;;;;;;;;;;5033755;28;20120;-37
2023/11/17 06:57:06;;;;;;;4.60;1.85;;;;;;;;;;5033691;28;20108;-36
2023/11/17 06:59:34;;;;;;;3.05;1.38;;;;;;;;;;5015543;28;20774;-37
2023/11/17 07:02:03;;;;;;;3.83;1.33;;;;;;;;;;5033718;28;20033;-36
2023/11/17 07:04:30;;;;;;;4.15;1.48;;;;;;;;;;5033376;28;20043;-36
2023/11/17 07:06:59;;;;;;;4.82;1.65;;;;;;;;;;5033455;28;20483;-36
2023/11/17 07:09:30;;;;;;;5.93;1.58;;;;;;;;;;5033204;28;20091;-37
2023/11/17 07:12:02;;;;;;;3.38;1.60;;;;;;;;;;5033168;28;20033;-37
2023/11/17 07:14:30;;;;;;;;;;;;;;;;;;5033335;28;20092;-36
2023/11/17 07:16:58;;;;;;;2.95;1.30;;;;;;;;;;5033226;28;19916;-37
2023/11/17 07:19:25;;;;;;;3.40;1.65;;;;;;;;;;5032271;28;20049;-36
2023/11/17 07:21:52;;;;;;;3.38;1.90;;;;;;;;;;5033127;28;20025;-37
2023/11/17 07:24:19;;;;;;;2.05;1.30;;;;;;;;;;5033099;28;20026;-36
2023/11/17 07:26:47;;;;;;;2.92;1.30;;;;;;;;;;5033160;28;20057;-36
2023/11/17 07:29:15;;;;;;;3.08;1.50;;;;;;;;;;5032809;28;20501;-37
2023/11/17 07:31:43;;;;;;;3.42;1.60;;;;;;;;;;5033159;28;20041;-37
2023/11/17 07:34:18;;;;;;;3.67;1.55;;;;;;;;;;5032827;28;20443;-37
2023/11/17 07:36:46;;;;;;;4.28;1.17;;;;;;;;;;5032793;28;20096;-34
2023/11/17 07:39:13;;;;;;;7.50;1.48;;;;;;;;;;5032686;28;20045;-34
2023/11/17 07:41:43;;;;;;;4.50;1.40;;;;;;;;;;5032755;28;20025;-34
2023/11/17 07:44:11;;;;;;;2.60;1.10;;;;;;;;;;5032715;28;20083;-34
2023/11/17 07:46:38;;;;;;;3.22;1.23;;;;;;;;;;5032789;28;20563;-34
2023/11/17 07:49:14;;;;;;;5.55;1.73;;;;;;;;;;5032269;28;20053;-34
2023/11/17 07:51:42;;;;;;;4.70;1.30;;;;;;;;;;5032426;28;20026;-34
2023/11/17 07:54:11;;;;;;;3.30;1.20;;;;;;;;;;5032353;28;20132;-34
2023/11/17 07:56:40;;;;;;;2.95;1.20;;;;;;;;;;5032720;28;20112;-34
2023/11/17 07:59:10;;;;;;;4.38;1.20;;;;;;;;;;5032297;28;20106;-34
2023/11/17 08:01:39;;;;;;;2.50;1.08;;;;;;;;;;5032164;28;20033;-34
2023/11/17 08:04:08;;;;;;;3.15;1.00;;;;;;;;;;5038789;28;20037;-34
2023/11/17 08:06:35;;;;;;;4.68;1.20;;;;;;;;;;5041989;28;20585;-34
2023/11/17 08:09:03;;;;;;;3.25;1.10;;;;;;;;;;5040345;28;20095;-37
2023/11/17 08:11:30;;;;;;;4.65;1.30;;;;;;;;;;5041821;28;20033;-37
2023/11/17 08:13:57;;;;;;;3.00;0.95;;;;;;;;;;5042304;28;20063;-34
2023/11/17 08:16:26;;;;;;;2.35;0.93;;;;;;;;;;5041380;28;20028;-34
2023/11/17 08:18:53;;;;;;;1.85;0.80;;;;;;;;;;5041682;28;20037;-37
2023/11/17 08:21:21;;;;;;;3.50;1.10;;;;;;;;;;5040125;28;20052;-34
2023/11/17 08:23:48;;;;;;;3.45;1.40;;;;;;;;;;5041998;28;20040;-34
2023/11/17 08:26:15;;;;;;;2.17;1.08;;;;;;;;;;5041716;28;20487;-36
2023/11/17 08:28:42;;;;;;;4.13;1.17;;;;;;;;;;5039899;28;20091;-34
2023/11/17 08:31:14;;;;;;;2.05;1.13;;;;;;;;;;5041547;28;20478;-36
2023/11/17 08:33:47;;;;;;;3.72;1.13;;;;;;;;;;5042104;28;20643;-36
2023/11/17 08:36:17;;;;;;;3.92;0.95;;;;;;;;;;5041231;28;20029;-34
2023/11/17 08:38:45;;;;;;;3.38;1.00;;;;;;;;;;5039813;28;20614;-34
2023/11/17 08:41:12;;;;;;;2.67;0.98;;;;;;;;;;5041332;28;20813;-37
2023/11/17 08:43:39;;;;;;;2.13;1.08;;;;;;;;;;5041942;28;20108;-37
2023/11/17 08:46:06;;;;;;;3.30;1.23;;;;;;;;;;5037592;28;20035;-36
2023/11/17 08:48:35;;;;;;;2.70;1.00;;;;;;;;;;5040636;28;20045;-34
2023/11/17 08:51:02;;;;;;;2.25;1.00;;;;;;;;;;5039565;28;20034;-34
2023/11/17 08:53:29;;;;;;;2.60;1.20;;;;;;;;;;5041282;28;20044;-34
2023/11/17 08:56:00;;;;;;;3.10;1.10;;;;;;;;;;5041785;28;20507;-34
2023/11/17 08:58:28;;;;;;;2.15;1.00;;;;;;;;;;5037820;28;20063;-36
2023/11/17 09:00:55;;;;;;;2.75;0.82;;;;;;;;;;5042621;28;20029;-36
2023/11/17 09:03:22;;;;;;;3.80;1.13;;;;;;;;;;5051501;28;20025;-36
2023/11/17 09:05:49;;;;;;;2.08;1.10;;;;;;;;;;5051367;28;20112;-38
2023/11/17 09:08:16;;;;;;;3.42;1.10;;;;;;;;;;5051120;28;20041;-37
2023/11/17 09:10:43;;;;;;;5.22;1.50;;;;;;;;;;5050985;28;20108;-40
2023/11/17 09:13:11;;;;;;;5.57;1.70;;;;;;;;;;5051179;28;20033;-37
2023/11/17 09:15:38;;;;;;;5.55;1.40;;;;;;;;;;5051152;28;20483;-35
2023/11/17 09:18:07;;;;;;;7.25;1.88;;;;;;;;;;5050743;28;20103;-37
2023/11/17 09:20:37;;;;;;;6.38;1.27;;;;;;;;;;5041659;28;20480;-37
2023/11/17 09:23:04;;;;;;;7.15;1.58;;;;;;;;;;5038045;28;20029;-37
2023/11/17 09:25:31;;;;;;;11.55;1.92;;;;;;;;;;5040069;28;20033;-38
2023/11/17 09:27:58;;;;;;;9.32;1.63;;;;;;;;;;5030849;28;20065;-36
2023/11/17 09:30:28;;;;;;;17.77;2.38;;;;;;;;;;5030965;28;20053;-35
2023/11/17 09:32:57;;;;;;;10.00;2.05;;;;;;;;;;5030684;28;20038;-36
2023/11/17 09:35:27;;;;;;;18.90;2.75;;;;;;;;;;5035739;28;20182;-35
2023/11/17 09:38:01;;;;;;;16.55;2.47;;;;;;;;;;5050966;28;20029;-38
2023/11/17 09:40:29;;;;;;;17.92;2.42;;;;;;;;;;5050603;28;20535;-35
2023/11/17 09:42:58;;;;;;;9.77;2.42;;;;;;;;;;5053990;28;20024;-38
2023/11/17 09:45:26;;;;;;;16.55;2.53;;;;;;;;;;5054775;28;20036;-39
2023/11/17 09:47:57;;;;;;;13.40;2.15;;;;;;;;;;5054676;28;20021;-38
2023/11/17 09:50:28;;;;;;;14.77;2.40;;;;;;;;;;5054459;28;20574;-38
2023/11/17 09:52:57;;;;;;;8.93;1.90;;;;;;;;;;5054554;28;20029;-38
2023/11/17 09:55:28;;;;;;;20.27;2.53;;;;;;;;;;5054620;28;20036;-38
2023/11/17 09:58:06;;;;;;;10.07;2.08;;;;;;;;;;5054664;28;20533;-38
2023/11/17 10:00:37;;;;;;;8.88;1.85;;;;;;;;;;5054542;28;20044;-38
2023/11/17 10:03:05;;;;;;;14.77;2.50;;;;;;;;;;5054640;28;20035;-38
2023/11/17 10:05:33;;;;;;;11.15;2.20;;;;;;;;;;5054718;28;20033;-38
2023/11/17 10:08:05;;;;;;;12.98;2.08;;;;;;;;;;5054525;28;20061;-38
2023/11/17 10:10:37;;;;;;;10.82;2.20;;;;;;;;;;5054561;28;20111;-38
2023/11/17 10:13:11;;;;;;;14.80;2.60;;;;;;;;;;5054505;28;20029;-38
2023/11/17 10:15:40;;;;;;;10.73;2.25;;;;;;;;;;5054483;28;20252;-38
2023/11/17 10:18:07;;;;;;;13.05;2.33;;;;;;;;;;5054156;28;20438;-38
2023/11/17 10:20:38;;;;;;;12.38;2.90;;;;;;;;;;5054489;28;20394;-38
2023/11/17 10:23:06;;;;;;;11.50;2.60;;;;;;;;;;5054220;28;20078;-38
2023/11/17 10:25:33;;;;;;;12.27;2.50;;;;;;;;;;5036266;28;20372;-38
2023/11/17 10:28:05;;;;;;;11.50;2.20;;;;;;;;;;5054177;28;20033;-38
2023/11/17 10:30:41;;;;;;;11.25;2.35;;;;;;;;;;5043022;28;20073;-38
2023/11/17 10:33:26;;;;;;;12.82;2.15;;;;;;;;;;5034065;28;20037;-37
2023/11/17 10:36:15;;;;;;;18.77;2.92;;;;;;;;;;5034114;28;20025;-37
2023/11/17 10:38:46;;;;;;;25.65;3.22;;;;;;;;;;5033456;28;20033;-38
2023/11/17 10:41:19;;;;;;;16.38;3.20;;;;;;;;;;5033813;28;20038;-38
2023/11/17 10:43:53;;;;;;;12.68;2.72;;;;;;;;;;5033718;28;20037;-35
2023/11/17 10:46:27;;;;;;;18.95;3.03;;;;;;;;;;5033927;28;20499;-36
2023/11/17 10:48:58;;;;;;;16.90;2.83;;;;;;;;;;5033470;28;20052;-36
2023/11/17 10:51:26;;;;;;;12.77;2.40;;;;;;;;;;5033645;28;20037;-36
2023/11/17 10:54:12;;;;;;;9.35;2.70;;;;;;;;;;5033548;28;20085;-36
2023/11/17 10:56:40;;;;;;;13.45;3.00;;;;;;;;;;5033643;28;20038;-35
2023/11/17 10:59:12;;;;;;;15.13;2.97;;;;;;;;;;5033491;28;20131;-36
2023/11/17 11:01:40;;;;;;;;;;;;;;;;;;5033920;28;20044;-35
2023/11/17 11:04:15;;;;;;;14.73;2.55;;;;;;;;;;5033201;28;19913;-37
2023/11/17 11:06:46;;;;;;;12.93;2.38;;;;;;;;;;5033368;28;20044;-38
2023/11/17 11:09:17;;;;;;;24.50;3.40;;;;;;;;;;5033206;28;20040;-37
2023/11/17 11:11:50;;;;;;;38.70;4.78;;;;;;;;;;5033287;28;20167;-36
2023/11/17 11:14:17;;;;;;;32.35;4.30;;;;;;;;;;5033405;28;20029;-36
2023/11/17 11:16:48;;;;;;;80.72;7.07;;;;;;;;;;5028521;28;20771;-31
2023/11/17 11:19:19;;;;;;;61.33;6.05;;;;;;;;;;5030613;28;20395;-39
2023/11/17 11:21:51;;;;;;;66.82;7.20;;;;;;;;;;5030824;28;20033;-39
2023/11/17 11:24:19;;;;;;;66.13;7.07;;;;;;;;;;5031979;28;20502;-40
2023/11/17 11:26:49;;;;;;;140.52;12.07;;;;;;;;;;5032477;28;20495;-39
2023/11/17 11:29:18;;;;;;;184.00;14.88;;;;;;;;;;5032819;28;20041;-39
2023/11/17 11:31:47;;;;;;;134.80;10.55;;;;;;;;;;5031495;28;20037;-38
2023/11/17 11:34:14;;;;;;;63.85;7.18;;;;;;;;;;5031831;28;20041;-41
2023/11/17 11:36:42;;;;;;;58.10;6.55;;;;;;;;;;5032478;28;20025;-41
2023/11/17 11:39:10;;;;;;;37.05;5.00;;;;;;;;;;5032326;28;20498;-42
2023/11/17 11:41:37;;;;;;;32.15;4.60;;;;;;;;;;5032392;28;20029;-42
2023/11/17 11:44:05;;;;;;;44.35;5.38;;;;;;;;;;5030854;28;20048;-41
2023/11/17 11:46:32;;;;;;;64.32;6.40;;;;;;;;;;5032333;28;20043;-42
2023/11/17 11:49:01;;;;;;;64.00;6.05;;;;;;;;;;5030640;28;20057;-41
2023/11/17 11:51:29;;;;;;;62.80;6.63;;;;;;;;;;5031255;28;20025;-42
2023/11/17 11:53:58;;;;;;;48.22;5.72;;;;;;;;;;5031828;28;20021;-42
2023/11/17 11:56:44;;;;;;;51.42;5.07;;;;;;;;;;5031729;28;20101;-42
2023/11/17 11:59:12;;;;;;;40.15;5.15;;;;;;;;;;5031613;28;20557;-42
2023/11/17 12:01:39;;;;;;;51.47;5.70;;;;;;;;;;5031635;28;20471;-42
2023/11/17 12:04:10;;;;;;;39.75;4.38;;;;;;;;;;5030993;28;20041;-43
2023/11/17 12:06:39;;;;;;;37.88;3.90;;;;;;;;;;5031608;28;20112;-42
2023/11/17 12:09:16;;;;;;;21.10;2.83;;;;;;;;;;5031241;28;20044;-42
2023/11/17 12:11:49;;;;;;;26.60;2.80;;;;;;;;;;5031305;28;20388;-42
2023/11/17 12:14:26;;;;;;;32.78;3.72;;;;;;;;;;5031385;28;20064;-42
2023/11/17 12:16:58;;;;;;;32.05;3.45;;;;;;;;;;5031448;28;20553;-42
2023/11/17 12:19:26;;;;;;;23.67;2.85;;;;;;;;;;5031297;28;20060;-42
2023/11/17 12:21:53;;;;;;;24.98;3.00;;;;;;;;;;5031357;28;20097;-43
2023/11/17 12:24:23;;;;;;;20.13;2.80;;;;;;;;;;5031337;28;20029;-42
2023/11/17 12:26:54;;;;;;;30.45;4.10;;;;;;;;;;5031221;28;20021;-42
2023/11/17 12:29:23;;;;;;;35.95;3.40;;;;;;;;;;5031110;28;20060;-44
2023/11/17 12:31:50;;;;;;;50.70;4.57;;;;;;;;;;5031205;28;20034;-42
2023/11/17 12:34:17;;;;;;;50.78;4.03;;;;;;;;;;5031138;28;20438;-42
2023/11/17 12:36:47;;;;;;;59.28;4.57;;;;;;;;;;5031104;28;20379;-42
2023/11/17 12:39:20;;;;;;;54.55;4.03;;;;;;;;;;5031048;28;20057;-42
2023/11/17 12:41:51;;;;;;;40.28;3.65;;;;;;;;;;5030974;28;20079;-42
2023/11/17 12:44:18;;;;;;;46.10;3.47;;;;;;;;;;5031297;28;20571;-42
2023/11/17 12:46:47;;;;;;;41.53;4.10;;;;;;;;;;5031046;28;20022;-42
2023/11/17 12:49:15;;;;;;;29.25;4.10;;;;;;;;;;4904376;28;3635385;-43
2023/11/17 12:51:43;;;;;;;31.23;3.10;;;;;;;;;;5031705;28;20022;-42
2023/11/17 12:54:15;;;;;;;30.65;2.85;;;;;;;;;;5030708;28;20041;-43
2023/11/17 12:56:43;;;;;;;24.77;2.67;;;;;;;;;;5031621;28;20063;-42
2023/11/17 12:59:13;;;;;;;22.50;2.83;;;;;;;;;;5031415;28;20037;-42
2023/11/17 13:01:41;;;;;;;22.17;2.72;;;;;;;;;;5031467;28;20022;-42
2023/11/17 13:04:08;;;;;;;26.55;2.35;;;;;;;;;;5044931;28;20037;-41
2023/11/17 13:06:36;;;;;;;15.90;2.20;;;;;;;;;;5039478;28;20387;-40
2023/11/17 13:09:09;;;;;;;76.78;4.25;;;;;;;;;;5040821;28;20041;-40
2023/11/17 13:11:48;;;;;;;29.27;3.08;;;;;;;;;;5041817;28;20041;-40
2023/11/17 13:14:21;;;;;;;23.60;2.53;;;;;;;;;;5038117;28;20033;-39
2023/11/17 13:16:48;;;;;;;20.73;2.42;;;;;;;;;;5040958;28;20030;-42
2023/11/17 13:19:16;;;;;;;27.45;2.50;;;;;;;;;;5045075;28;20029;-40
2023/11/17 13:21:43;;;;;;;22.13;2.65;;;;;;;;;;5045371;28;20368;-40
2023/11/17 13:24:10;;;;;;;15.25;1.90;;;;;;;;;;5043575;28;20037;-42
2023/11/17 13:26:37;;;;;;;16.85;2.58;;;;;;;;;;5044797;28;20064;-39
2023/11/17 13:29:18;;;;;;;18.30;2.15;;;;;;;;;;5045494;28;20103;-43
2023/11/17 13:31:45;;;;;;;11.63;2.72;;;;;;;;;;5044794;28;20083;-42
2023/11/17 13:34:15;;;;;;;18.38;2.63;;;;;;;;;;5041231;28;20060;-40
2023/11/17 13:36:44;;;;;;;22.73;3.42;;;;;;;;;;5042906;28;20033;-39
2023/11/17 13:39:26;;;;;;;28.85;3.00;;;;;;;;;;5043930;28;20044;-42
2023/11/17 13:41:54;;;;;;;24.23;2.67;;;;;;;;;;5042447;28;20036;-39
2023/11/17 13:44:26;;;;;;;16.83;2.70;;;;;;;;;;5043047;28;20047;-41
2023/11/17 13:46:55;;;;;;;;;;;;;;;;;;5042662;28;20065;-42
2023/11/17 13:49:26;;;;;;;20.45;2.55;;;;;;;;;;5042856;28;19924;-42
2023/11/17 13:52:02;;;;;;;28.35;3.42;;;;;;;;;;5043320;28;20065;-40
2023/11/17 13:54:30;;;;;;;20.10;2.60;;;;;;;;;;5041346;28;20044;-40
2023/11/17 13:56:57;;;;;;;16.80;2.40;;;;;;;;;;5054169;28;20033;-42
2023/11/17 13:59:26;;;;;;;35.00;3.40;;;;;;;;;;5054694;28;20033;-42
2023/11/17 14:01:56;;;;;;;25.08;2.90;;;;;;;;;;5047781;28;20053;-39
2023/11/17 14:04:26;;;;;;;24.40;3.15;;;;;;;;;;5044366;28;20124;-40
2023/11/17 14:06:55;;;;;;;25.05;2.92;;;;;;;;;;5040131;28;20084;-41
2023/11/17 14:09:23;;;;;;;25.27;3.58;;;;;;;;;;5043306;28;20102;-42
2023/11/17 14:11:51;;;;;;;30.45;3.45;;;;;;;;;;5036729;28;20032;-40
2023/11/17 14:14:19;;;;;;;44.60;3.60;;;;;;;;;;5046939;28;20025;-43
2023/11/17 14:16:49;;;;;;;37.42;4.13;;;;;;;;;;5044116;28;20033;-42
2023/11/17 14:19:18;;;;;;;32.65;4.13;;;;;;;;;;5039490;28;20036;-42
2023/11/17 14:21:45;;;;;;;29.00;3.25;;;;;;;;;;5044091;28;20029;-44
2023/11/17 14:24:16;;;;;;;37.22;4.97;;;;;;;;;;5042492;28;20057;-41
2023/11/17 14:26:43;;;;;;;30.25;4.93;;;;;;;;;;5037941;28;20041;-41
2023/11/17 14:29:13;;;;;;;25.67;4.97;;;;;;;;;;5041928;28;20033;-42
2023/11/17 14:31:41;;;;;;;25.35;4.47;;;;;;;;;;5043802;28;20037;-40
2023/11/17 14:34:13;;;;;;;27.67;4.18;;;;;;;;;;5043734;28;20032;-40
2023/11/17 14:36:40;;;;;;;19.38;4.43;;;;;;;;;;5040296;28;20041;-40
2023/11/17 14:39:08;;;;;;;29.23;3.90;;;;;;;;;;5042814;28;20025;-42
2023/11/17 14:41:36;;;;;;;21.95;4.38;;;;;;;;;;5039010;28;20045;-40
2023/11/17 14:44:03;;;;;;;26.83;4.75;;;;;;;;;;5038847;28;20040;-43
2023/11/17 14:46:32;;;;;;;22.52;4.18;;;;;;;;;;5035623;28;20396;-40